Time;durP1;ratioP1;P1;durP2;ratioP2;P2;SDS_P1;SDS_P2;PMS_P1;PMS_P2;Temp;Humidity;BMP_temperature;BMP_pressure;BME280_temperature;BME280_humidity;BME280_pressure;Samples;Min_cycle;Max_cycle;Signal;HPM_P1;HPM_P2
2021/09/19 07:30:55;;;;;;;1.30;1.20;;;21.50;62.20;;;;;;5045694;27;20409;-63
2021/09/19 07:33:22;;;;;;;1.30;1.20;;;21.50;62.30;;;;;;5037184;28;20040;-64
2021/09/19 07:35:49;;;;;;;1.20;1.17;;;21.50;62.20;;;;;;5031376;28;20045;-63
2021/09/19 07:38:15;;;;;;;1.30;1.20;;;21.50;62.10;;;;;;5025112;28;20120;-63
2021/09/19 07:40:41;;;;;;;1.17;1.10;;;21.50;62.70;;;;;;5019612;28;20037;-63
2021/09/19 07:43:07;;;;;;;1.30;1.20;;;21.60;62.10;;;;;;5028308;28;20442;-63
2021/09/19 07:45:33;;;;;;;1.15;1.02;;;21.60;62.10;;;;;;5023025;28;20048;-62
2021/09/19 07:48:01;;;;;;;1.25;1.15;;;21.60;62.00;;;;;;5024641;28;20505;-63
2021/09/19 07:50:27;;;;;;;1.40;1.30;;;21.60;62.00;;;;;;5024712;28;20065;-63
2021/09/19 07:52:53;;;;;;;1.23;1.15;;;21.60;61.90;;;;;;5027882;28;20041;-63
2021/09/19 07:55:18;;;;;;;1.00;1.00;;;21.60;61.90;;;;;;5015539;28;20037;-64
2021/09/19 07:57:45;;;;;;;1.60;1.50;;;21.60;61.90;;;;;;5022228;28;20493;-63
2021/09/19 08:00:11;;;;;;;1.42;1.33;;;21.60;61.90;;;;;;5024415;28;20044;-63
2021/09/19 08:02:37;;;;;;;1.38;1.27;;;21.60;61.80;;;;;;5026381;28;20041;-61
2021/09/19 08:05:03;;;;;;;1.10;1.10;;;21.70;61.90;;;;;;5029692;28;20480;-64
2021/09/19 08:07:28;;;;;;;1.08;1.00;;;21.60;61.80;;;;;;5020308;28;20350;-65
2021/09/19 08:09:54;;;;;;;0.90;0.90;;;21.70;61.90;;;;;;5024635;28;20041;-62
2021/09/19 08:12:20;;;;;;;1.10;1.00;;;21.70;61.90;;;;;;5020562;28;20063;-64
2021/09/19 08:14:45;;;;;;;1.10;1.00;;;21.70;61.90;;;;;;5020398;28;20064;-62
2021/09/19 08:17:11;;;;;;;1.40;1.23;;;21.70;61.90;;;;;;5018192;28;20038;-64
2021/09/19 08:19:37;;;;;;;1.60;1.05;;;21.70;61.90;;;;;;5028147;28;20195;-63
2021/09/19 08:22:03;;;;;;;1.00;1.00;;;21.70;61.90;;;;;;5021468;28;20029;-63
2021/09/19 08:24:29;;;;;;;1.50;1.40;;;21.70;61.90;;;;;;5028224;28;20042;-63
2021/09/19 08:26:54;;;;;;;1.85;1.42;;;21.70;61.90;;;;;;5025202;28;20495;-63
2021/09/19 08:29:21;;;;;;;1.45;1.30;;;21.70;61.90;;;;;;5026497;28;20033;-64
2021/09/19 08:31:48;;;;;;;1.23;1.00;;;21.70;61.90;;;;;;5043596;28;20212;-63
2021/09/19 08:34:13;;;;;;;1.50;1.40;;;21.80;61.90;;;;;;5047495;28;20393;-62
2021/09/19 08:36:39;;;;;;;1.40;1.30;;;21.80;62.00;;;;;;5056850;28;20037;-63
2021/09/19 08:39:07;;;;;;;1.08;1.08;;;21.80;61.90;;;;;;5051135;28;20444;-64
2021/09/19 08:41:33;;;;;;;1.30;1.20;;;21.70;61.90;;;;;;5049738;28;20036;-64
2021/09/19 08:43:59;;;;;;;1.45;1.35;;;21.80;61.90;;;;;;5052076;28;20124;-60
2021/09/19 08:46:26;;;;;;;1.38;1.27;;;21.80;62.00;;;;;;5055640;28;20147;-63
2021/09/19 08:48:52;;;;;;;1.13;1.10;;;21.80;61.90;;;;;;5054616;28;20040;-62
2021/09/19 08:51:19;;;;;;;1.40;1.30;;;21.80;61.90;;;;;;5053005;28;20048;-61
2021/09/19 08:53:45;;;;;;;1.35;1.25;;;21.90;62.30;;;;;;5050404;28;20037;-63
2021/09/19 08:56:10;;;;;;;1.42;1.33;;;21.90;62.00;;;;;;5047244;28;20032;-64
2021/09/19 08:58:39;;;;;;;0.98;0.90;;;21.80;61.90;;;;;;5053220;28;20223;-62
2021/09/19 09:01:06;;;;;;;1.30;1.20;;;21.90;62.00;;;;;;5050774;28;20516;-61
2021/09/19 09:03:32;;;;;;;1.25;1.15;;;21.90;62.00;;;;;;5048637;28;20108;-64
2021/09/19 09:06:02;;;;;;;1.13;1.10;;;21.90;62.00;;;;;;5042639;28;20211;-64
2021/09/19 09:08:28;;;;;;;1.20;1.10;;;21.90;62.00;;;;;;5049964;28;20090;-63
2021/09/19 09:10:56;;;;;;;1.10;1.10;;;21.90;61.90;;;;;;5050408;28;20037;-63
2021/09/19 09:13:33;;;;;;;1.33;1.23;;;21.90;61.90;;;;;;5036358;28;20210;-64
2021/09/19 09:16:17;;;;;;;1.33;1.23;;;22.00;62.00;;;;;;5044714;28;20108;-60
2021/09/19 09:18:53;;;;;;;1.35;1.20;;;22.00;62.00;;;;;;5050042;28;20590;-62
2021/09/19 09:21:23;;;;;;;1.25;1.15;;;22.00;62.00;;;;;;5053358;28;20037;-64
2021/09/19 09:23:51;;;;;;;1.15;1.15;;;22.00;62.00;;;;;;5049214;28;20041;-62
2021/09/19 09:26:37;;;;;;;1.50;1.40;;;22.00;62.00;;;;;;5044575;28;20047;-62
2021/09/19 09:29:10;;;;;;;1.25;1.15;;;22.00;62.00;;;;;;5041861;28;20103;-60
2021/09/19 09:31:42;;;;;;;1.58;1.27;;;22.00;61.90;;;;;;5051671;28;20063;-59
2021/09/19 09:34:16;;;;;;;1.10;1.00;;;22.00;62.00;;;;;;5051399;28;20402;-60
2021/09/19 09:36:58;;;;;;;1.30;1.20;;;22.00;62.00;;;;;;5051126;28;20064;-62
2021/09/19 09:39:42;;;;;;;1.88;1.23;;;22.00;62.00;;;;;;5048765;28;20026;-62
2021/09/19 09:42:13;;;;;;;1.40;1.30;;;22.00;62.00;;;;;;5044612;28;20127;-60
2021/09/19 09:44:39;;;;;;;1.10;1.10;;;22.10;62.00;;;;;;5044656;28;20033;-63
2021/09/19 09:47:08;;;;;;;1.27;1.20;;;22.10;62.00;;;;;;5045407;28;20063;-64
2021/09/19 09:49:35;;;;;;;1.40;1.30;;;22.10;62.00;;;;;;5043392;28;20499;-63
2021/09/19 09:52:19;;;;;;;1.30;1.20;;;22.10;62.00;;;;;;5046577;28;20067;-62
2021/09/19 09:54:53;;;;;;;0.95;0.93;;;22.10;62.00;;;;;;5046127;28;20036;-61
2021/09/19 09:57:22;;;;;;;1.10;1.10;;;22.10;62.00;;;;;;5058266;28;20024;-61
2021/09/19 10:19:47;;;;;;;1.08;1.05;;;22.20;62.10;;;;;;4979150;28;20156;-64
2021/09/19 11:16:37;;;;;;;1.15;1.10;;;22.30;62.30;;;;;;5041231;28;20431;-63
2021/09/19 11:19:05;;;;;;;1.20;1.13;;;22.40;62.30;;;;;;5016329;28;20026;-56
2021/09/19 11:21:49;;;;;;;0.95;0.95;;;22.30;62.20;;;;;;5032505;28;20096;-56
2021/09/19 11:24:17;;;;;;;1.15;1.15;;;22.40;62.20;;;;;;5027314;28;20053;-56
2021/09/19 11:26:53;;;;;;;1.10;1.10;;;22.40;62.10;;;;;;5028341;28;20076;-57
2021/09/19 11:29:25;;;;;;;1.55;1.45;;;22.40;62.10;;;;;;5025549;28;20034;-57
2021/09/19 11:31:53;;;;;;;1.30;1.20;;;22.50;62.10;;;;;;5036701;28;20033;-57
2021/09/19 11:34:20;;;;;;;1.17;1.10;;;22.40;61.90;;;;;;5026791;28;20033;-57
2021/09/19 11:36:54;;;;;;;1.33;1.23;;;22.50;62.00;;;;;;5027940;28;20029;-55
2021/09/19 11:39:20;;;;;;;0.98;0.98;;;22.50;61.90;;;;;;5034311;28;20065;-56
2021/09/19 11:41:48;;;;;;;1.10;1.10;;;22.50;61.80;;;;;;5041528;28;20507;-52
2021/09/19 11:44:15;;;;;;;1.10;1.10;;;22.50;61.80;;;;;;5025179;28;20076;-54
2021/09/19 11:46:43;;;;;;;1.25;1.15;;;22.50;61.80;;;;;;5036441;28;20033;-56
2021/09/19 11:49:08;;;;;;;1.35;1.25;;;22.50;61.70;;;;;;5032854;28;20086;-55
2021/09/19 11:51:34;;;;;;;1.10;1.10;;;22.50;61.70;;;;;;5036700;28;20452;-52
2021/09/19 11:54:00;;;;;;;1.10;1.10;;;22.60;61.70;;;;;;5046731;28;20549;-55
2021/09/19 11:56:27;;;;;;;1.30;1.20;;;22.60;61.70;;;;;;5025604;28;20037;-56
2021/09/19 11:58:53;;;;;;;1.50;1.10;;;22.60;61.60;;;;;;5032380;28;20100;-55
2021/09/19 12:01:27;;;;;;;1.20;1.10;;;22.60;61.60;;;;;;5013398;28;20071;-56
2021/09/19 12:04:04;;;;;;;0.90;0.90;;;22.60;61.60;;;;;;5021142;28;20411;-55
2021/09/19 12:06:30;;;;;;;1.10;1.05;;;22.60;61.60;;;;;;5033217;28;20476;-54
2021/09/19 12:08:55;;;;;;;1.10;1.00;;;22.60;61.60;;;;;;5020296;28;20103;-54
2021/09/19 12:11:36;;;;;;;1.38;1.27;;;22.60;61.60;;;;;;5016151;28;20327;-54
2021/09/19 12:14:01;;;;;;;1.00;1.00;;;22.60;61.50;;;;;;5014040;28;20534;-54
2021/09/19 12:16:29;;;;;;;1.23;1.20;;;22.60;61.50;;;;;;5037889;28;20475;-54
2021/09/19 12:18:55;;;;;;;1.65;1.23;;;22.60;61.50;;;;;;5055647;28;20029;-56
2021/09/19 12:21:27;;;;;;;1.33;1.27;;;22.60;61.40;;;;;;5037676;28;20351;-53
2021/09/19 12:23:54;;;;;;;1.02;1.02;;;22.60;61.40;;;;;;5053354;28;20088;-55
2021/09/19 12:26:21;;;;;;;1.10;1.00;;;22.70;61.40;;;;;;5052109;28;20035;-57
2021/09/19 12:28:51;;;;;;;1.00;1.00;;;22.70;61.40;;;;;;5055888;28;20035;-58
2021/09/19 12:31:42;;;;;;;1.10;1.10;;;22.70;61.40;;;;;;5057149;28;20460;-55
2021/09/19 12:34:10;;;;;;;1.17;1.08;;;22.70;61.40;;;;;;5055088;28;20037;-55
2021/09/19 12:36:43;;;;;;;1.23;1.23;;;22.70;61.30;;;;;;5054071;28;20024;-53
2021/09/19 12:39:20;;;;;;;1.05;1.05;;;22.70;61.30;;;;;;5051283;28;20107;-55
2021/09/19 12:41:51;;;;;;;0.93;0.93;;;22.70;61.30;;;;;;5054464;28;20025;-56
2021/09/19 12:44:22;;;;;;;1.10;1.10;;;22.70;61.20;;;;;;5051692;28;20029;-53
2021/09/19 12:46:50;;;;;;;1.10;1.10;;;22.70;61.20;;;;;;5056045;28;20757;-56
2021/09/19 12:49:25;;;;;;;0.90;0.90;;;22.70;61.20;;;;;;5049683;28;20028;-55
2021/09/19 12:52:10;;;;;;;1.10;1.10;;;22.70;61.10;;;;;;5032812;28;20114;-56
2021/09/19 12:54:57;;;;;;;1.30;1.20;;;22.70;61.10;;;;;;5037926;28;20052;-55
2021/09/19 12:57:25;;;;;;;2.78;1.55;;;22.70;61.10;;;;;;5045601;28;20075;-55
2021/09/19 12:59:52;;;;;;;1.17;1.17;;;22.70;61.10;;;;;;5050575;28;20123;-56
2021/09/19 13:02:19;;;;;;;1.27;1.17;;;22.70;61.10;;;;;;5030813;28;20142;-55
2021/09/19 13:04:45;;;;;;;1.27;1.17;;;22.70;61.10;;;;;;5050039;28;20041;-56
2021/09/19 13:07:11;;;;;;;1.40;1.30;;;22.70;61.00;;;;;;5048779;28;20037;-55
2021/09/19 13:09:38;;;;;;;1.50;1.40;;;22.70;61.10;;;;;;5056697;28;20033;-58
2021/09/19 13:12:05;;;;;;;1.20;1.20;;;22.70;61.00;;;;;;5036818;28;20440;-55
2021/09/19 13:14:31;;;;;;;1.27;1.17;;;22.70;61.00;;;;;;5019594;28;20119;-55
2021/09/19 13:16:56;;;;;;;1.23;1.20;;;22.70;60.90;;;;;;5052013;28;20152;-56
2021/09/19 13:19:23;;;;;;;1.50;1.40;;;22.70;60.90;;;;;;5059129;28;20841;-51
2021/09/19 13:21:49;;;;;;;1.10;1.10;;;22.70;60.90;;;;;;5056179;28;20037;-54
2021/09/19 13:24:15;;;;;;;1.42;1.33;;;22.70;60.90;;;;;;5052293;28;20067;-54
2021/09/19 13:26:40;;;;;;;1.27;1.17;;;22.70;60.90;;;;;;5032416;28;20104;-57
2021/09/19 13:29:08;;;;;;;1.25;1.15;;;22.70;61.10;;;;;;5047610;28;20037;-57
2021/09/19 13:31:35;;;;;;;1.40;1.30;;;22.70;60.90;;;;;;5061097;28;20106;-55
2021/09/19 13:34:01;;;;;;;1.60;1.50;;;22.70;60.90;;;;;;5053131;28;20021;-56
2021/09/19 13:36:28;;;;;;;1.50;1.30;;;22.70;60.90;;;;;;5054417;28;20109;-56
2021/09/19 13:38:55;;;;;;;1.50;1.40;;;22.70;60.90;;;;;;5051922;28;20396;-57
2021/09/19 13:41:21;;;;;;;1.50;1.40;;;22.70;60.90;;;;;;5054051;28;20455;-57
2021/09/19 13:43:47;;;;;;;1.60;1.50;;;22.70;60.90;;;;;;5052723;28;20029;-57
2021/09/19 13:46:13;;;;;;;1.42;1.33;;;22.70;60.90;;;;;;5043928;28;20042;-56
2021/09/19 13:48:39;;;;;;;1.58;1.48;;;22.70;60.90;;;;;;5054821;28;20453;-56
2021/09/19 13:51:05;;;;;;;1.50;1.40;;;22.70;60.90;;;;;;5052263;28;20055;-56
2021/09/19 13:53:32;;;;;;;1.60;1.50;;;22.70;60.90;;;;;;5055931;28;20095;-57
2021/09/19 13:55:58;;;;;;;1.42;1.33;;;22.70;60.80;;;;;;5036139;28;20098;-57
2021/09/19 13:58:24;;;;;;;1.70;1.60;;;22.70;60.90;;;;;;5047201;28;20113;-57
2021/09/19 14:00:50;;;;;;;1.30;1.20;;;22.70;60.90;;;;;;5046553;28;20100;-57
2021/09/19 14:03:16;;;;;;;1.70;1.60;;;22.70;60.90;;;;;;5044337;28;20257;-57
2021/09/19 14:05:43;;;;;;;1.83;1.73;;;22.70;60.80;;;;;;5049926;28;20033;-57
2021/09/19 14:08:10;;;;;;;1.38;1.27;;;22.70;60.80;;;;;;5054392;28;20460;-56
2021/09/19 14:10:36;;;;;;;1.42;1.33;;;22.70;60.80;;;;;;5053031;28;20033;-57
2021/09/19 14:13:02;;;;;;;1.45;1.35;;;22.70;60.80;;;;;;5047357;28;20044;-57
2021/09/19 14:15:28;;;;;;;1.48;1.38;;;22.70;60.80;;;;;;5043944;28;20045;-57
2021/09/19 14:17:53;;;;;;;1.50;1.40;;;22.70;60.80;;;;;;5052291;28;20500;-56
2021/09/19 14:20:19;;;;;;;1.65;1.55;;;22.70;60.80;;;;;;5059278;28;20040;-57
2021/09/19 14:22:46;;;;;;;1.45;1.35;;;22.70;60.80;;;;;;5049024;28;20108;-57
2021/09/19 14:25:13;;;;;;;1.58;1.48;;;22.70;60.80;;;;;;5044129;28;20359;-58
2021/09/19 14:27:39;;;;;;;1.60;1.50;;;22.70;60.70;;;;;;5050485;28;20066;-57
2021/09/19 14:30:07;;;;;;;1.55;1.45;;;22.70;60.70;;;;;;5030331;28;20108;-57
2021/09/19 14:32:32;;;;;;;1.63;1.52;;;22.70;60.70;;;;;;5056969;28;20064;-55
2021/09/19 14:34:58;;;;;;;1.70;1.60;;;22.70;60.70;;;;;;5042698;28;20076;-56
2021/09/19 14:37:24;;;;;;;1.60;1.50;;;22.70;60.70;;;;;;5046029;28;20575;-57
2021/09/19 14:39:49;;;;;;;1.25;1.17;;;22.70;60.70;;;;;;5054161;28;20044;-54
2021/09/19 14:42:15;;;;;;;1.48;1.38;;;22.70;60.70;;;;;;5057207;28;20059;-55
2021/09/19 14:44:41;;;;;;;1.83;1.20;;;22.70;60.70;;;;;;5048774;28;20084;-54
2021/09/19 14:47:07;;;;;;;1.63;1.52;;;22.70;60.80;;;;;;5052543;28;20099;-55
2021/09/19 14:49:33;;;;;;;1.52;1.42;;;22.70;60.70;;;;;;5040250;28;20377;-54
2021/09/19 14:51:58;;;;;;;1.70;1.60;;;22.70;60.80;;;;;;5054734;28;20032;-55
2021/09/19 14:54:24;;;;;;;1.40;1.30;;;22.70;60.70;;;;;;5049337;28;20033;-55
2021/09/19 14:56:49;;;;;;;1.60;1.50;;;22.70;60.70;;;;;;5046581;28;20052;-51
2021/09/19 14:59:15;;;;;;;1.50;1.40;;;22.70;60.70;;;;;;5046987;28;20318;-54
2021/09/19 15:01:41;;;;;;;1.50;1.40;;;22.70;60.70;;;;;;5050199;28;20033;-55
2021/09/19 15:04:06;;;;;;;1.27;1.17;;;22.70;60.70;;;;;;5046577;28;20120;-56
2021/09/19 15:06:32;;;;;;;1.40;1.30;;;22.70;60.70;;;;;;5043372;28;20037;-56
2021/09/19 15:08:58;;;;;;;1.70;1.60;;;22.70;60.70;;;;;;5044585;28;20041;-56
2021/09/19 15:11:24;;;;;;;1.52;1.42;;;22.70;60.80;;;;;;5046196;28;20125;-53
2021/09/19 15:13:50;;;;;;;1.50;1.40;;;22.70;60.80;;;;;;5047628;28;20132;-55
2021/09/19 15:16:20;;;;;;;1.52;1.42;;;22.70;60.70;;;;;;5046118;28;20393;-56
2021/09/19 15:18:46;;;;;;;1.60;1.50;;;22.70;60.70;;;;;;5038602;28;20068;-55
2021/09/19 15:21:12;;;;;;;1.50;1.40;;;22.70;60.70;;;;;;5013819;28;20037;-56
2021/09/19 15:23:38;;;;;;;1.60;1.50;;;22.70;60.70;;;;;;5045056;28;20044;-55
2021/09/19 15:26:05;;;;;;;1.55;1.45;;;22.80;60.70;;;;;;5036724;28;20144;-56
2021/09/19 15:28:31;;;;;;;1.52;1.42;;;22.80;60.70;;;;;;5038995;28;20439;-52
2021/09/19 15:30:57;;;;;;;1.50;1.40;;;22.80;60.70;;;;;;5034316;28;20033;-54
2021/09/19 15:33:23;;;;;;;1.27;1.25;;;22.80;60.70;;;;;;5038359;28;20064;-55
2021/09/19 15:35:49;;;;;;;1.60;1.50;;;22.80;60.60;;;;;;5037716;28;20104;-56
2021/09/19 15:38:15;;;;;;;2.10;1.38;;;22.80;60.60;;;;;;5041436;28;20057;-56
2021/09/19 15:40:56;;;;;;;1.67;1.58;;;22.90;60.60;;;;;;5032561;28;20061;-57
2021/09/19 15:43:30;;;;;;;1.50;1.40;;;22.90;60.50;;;;;;5035782;28;20514;-63
2021/09/19 15:46:00;;;;;;;1.35;1.25;;;22.90;60.30;;;;;;5031637;28;20044;-58
2021/09/19 15:48:28;;;;;;;1.38;1.27;;;22.90;60.20;;;;;;5040202;28;20029;-58
2021/09/19 15:50:55;;;;;;;1.50;1.40;;;22.90;60.20;;;;;;5033112;28;20500;-56
2021/09/19 15:53:21;;;;;;;3.00;1.50;;;22.90;60.10;;;;;;5033276;28;20038;-58
2021/09/19 15:55:46;;;;;;;1.50;1.20;;;22.90;60.00;;;;;;5035242;28;20041;-55
2021/09/19 15:58:12;;;;;;;1.50;1.40;;;22.90;60.00;;;;;;5033658;28;20518;-57
2021/09/19 16:00:41;;;;;;;8.45;1.80;;;22.90;60.10;;;;;;5034797;28;20045;-58
2021/09/19 16:03:07;;;;;;;1.70;1.60;;;22.90;60.00;;;;;;5010016;28;20538;-58
2021/09/19 16:05:32;;;;;;;1.45;1.35;;;22.90;60.10;;;;;;5033195;28;20073;-59
2021/09/19 16:07:58;;;;;;;1.60;1.50;;;22.80;60.00;;;;;;5036745;28;20041;-60
2021/09/19 16:10:23;;;;;;;1.65;1.40;;;22.80;60.10;;;;;;5034143;28;20055;-60
2021/09/19 16:12:53;;;;;;;1.50;1.40;;;22.80;60.10;;;;;;5036079;28;20046;-59
2021/09/19 16:15:18;;;;;;;1.45;1.35;;;22.80;60.10;;;;;;5034254;28;20045;-57
2021/09/19 16:17:44;;;;;;;1.50;1.40;;;22.80;60.10;;;;;;5044870;28;20574;-59
2021/09/19 16:20:10;;;;;;;1.35;1.25;;;22.80;60.10;;;;;;5049994;28;20103;-60
2021/09/19 16:22:36;;;;;;;1.25;1.25;;;22.80;60.10;;;;;;5051775;28;20144;-59
2021/09/19 16:25:02;;;;;;;1.60;1.50;;;22.80;60.10;;;;;;5049560;28;20504;-59
2021/09/19 16:27:28;;;;;;;5.13;1.38;;;22.80;60.20;;;;;;5048719;28;20119;-59
2021/09/19 16:29:54;;;;;;;1.60;1.42;;;22.80;60.20;;;;;;5034012;28;20036;-58
2021/09/19 16:32:19;;;;;;;1.63;1.52;;;22.80;60.10;;;;;;5051541;28;20048;-59
2021/09/19 16:34:45;;;;;;;1.60;1.50;;;22.80;60.20;;;;;;5054464;28;20145;-57
2021/09/19 16:37:11;;;;;;;1.63;1.52;;;22.80;60.20;;;;;;5047194;28;20037;-59
2021/09/19 16:39:36;;;;;;;1.65;1.55;;;22.80;60.20;;;;;;5041423;28;20033;-58
2021/09/19 16:42:02;;;;;;;1.50;1.40;;;22.70;60.10;;;;;;5053487;28;20037;-56
2021/09/19 16:44:28;;;;;;;1.58;1.48;;;22.70;60.20;;;;;;5047968;28;21582;-57
2021/09/19 16:46:53;;;;;;;1.40;1.30;;;22.70;60.20;;;;;;5050911;28;20333;-56
2021/09/19 16:49:19;;;;;;;1.77;1.60;;;22.70;60.20;;;;;;5050860;28;20472;-56
2021/09/19 16:51:45;;;;;;;2.10;1.98;;;22.70;60.20;;;;;;5049281;28;20067;-58
2021/09/19 16:54:10;;;;;;;2.33;2.13;;;22.70;60.30;;;;;;5036965;28;20048;-57
2021/09/19 16:56:36;;;;;;;2.42;2.22;;;22.70;60.40;;;;;;5048771;28;20037;-56
2021/09/19 16:59:01;;;;;;;3.42;2.58;;;22.70;60.60;;;;;;5049214;28;20029;-59
2021/09/19 17:01:27;;;;;;;3.35;2.65;;;22.70;60.70;;;;;;5040141;28;20112;-59
2021/09/19 17:03:53;;;;;;;3.60;2.75;;;22.70;60.70;;;;;;5050527;28;20057;-60
2021/09/19 17:06:19;;;;;;;2.72;2.50;;;22.70;60.80;;;;;;5049342;28;20439;-59
2021/09/19 17:08:45;;;;;;;2.80;2.60;;;22.70;60.80;;;;;;5050522;28;20059;-58
2021/09/19 17:11:10;;;;;;;3.25;2.00;;;22.70;60.80;;;;;;5049027;28;20112;-58
2021/09/19 17:13:36;;;;;;;2.55;2.35;;;22.60;60.80;;;;;;5036012;28;20206;-56
2021/09/19 17:16:02;;;;;;;2.30;2.10;;;22.70;60.80;;;;;;5052486;28;20028;-53
2021/09/19 17:18:28;;;;;;;1.98;1.80;;;22.60;60.80;;;;;;5055866;28;20047;-62
2021/09/19 17:20:54;;;;;;;2.30;2.10;;;22.60;60.80;;;;;;5038313;28;20037;-58
2021/09/19 17:23:19;;;;;;;2.20;2.00;;;22.60;60.80;;;;;;5041927;28;20492;-61
2021/09/19 17:25:46;;;;;;;2.33;2.10;;;22.60;60.70;;;;;;5052472;28;20048;-59
2021/09/19 17:28:12;;;;;;;2.38;1.90;;;22.60;60.70;;;;;;5052803;28;20423;-62
2021/09/19 17:30:38;;;;;;;2.15;1.95;;;22.60;60.70;;;;;;5047830;28;20052;-58
2021/09/19 17:33:03;;;;;;;1.85;1.75;;;22.60;60.70;;;;;;5051196;28;20127;-60
2021/09/19 17:35:29;;;;;;;1.80;1.70;;;22.60;60.70;;;;;;5048871;28;20045;-60
2021/09/19 17:37:55;;;;;;;1.85;1.75;;;22.60;60.80;;;;;;5047104;28;20091;-60
2021/09/19 17:40:20;;;;;;;1.90;1.70;;;22.60;60.80;;;;;;5048266;28;20154;-60
2021/09/19 17:42:46;;;;;;;1.90;1.80;;;22.60;60.80;;;;;;5047698;28;20040;-56
2021/09/19 17:45:12;;;;;;;2.35;2.00;;;22.60;60.80;;;;;;5049751;28;20061;-58
2021/09/19 17:47:38;;;;;;;2.20;1.95;;;22.60;60.80;;;;;;5048191;28;20096;-59
2021/09/19 17:50:06;;;;;;;2.10;1.90;;;22.60;60.80;;;;;;5049707;28;20049;-58
2021/09/19 17:52:32;;;;;;;2.28;2.03;;;22.50;60.70;;;;;;5046708;28;20079;-59
2021/09/19 17:54:58;;;;;;;1.80;1.70;;;22.50;60.70;;;;;;5047149;28;20037;-60
2021/09/19 17:57:23;;;;;;;1.95;1.85;;;22.50;60.70;;;;;;5046417;28;20487;-61
2021/09/19 17:59:49;;;;;;;1.83;1.73;;;22.50;60.70;;;;;;5050063;28;20071;-59
2021/09/19 18:02:15;;;;;;;2.58;2.08;;;22.50;60.60;;;;;;5047562;28;20025;-59
2021/09/19 18:04:40;;;;;;;2.33;2.08;;;22.50;60.70;;;;;;5025025;28;20083;-60
2021/09/19 18:07:06;;;;;;;2.60;1.90;;;22.50;60.60;;;;;;5045223;28;20047;-61
2021/09/19 18:09:31;;;;;;;1.98;1.85;;;22.50;60.70;;;;;;5049429;28;20115;-58
2021/09/19 18:11:57;;;;;;;2.00;1.90;;;22.50;60.70;;;;;;5029159;28;20524;-58
2021/09/19 18:14:23;;;;;;;1.90;1.80;;;22.50;60.70;;;;;;5046633;28;20029;-60
2021/09/19 18:16:49;;;;;;;1.80;1.70;;;22.50;60.80;;;;;;5047454;28;20045;-52
2021/09/19 18:19:14;;;;;;;2.40;1.80;;;22.50;60.70;;;;;;5047351;28;20091;-56
2021/09/19 18:21:40;;;;;;;3.22;2.72;;;22.50;60.70;;;;;;5046563;28;20029;-60
2021/09/19 18:24:06;;;;;;;2.13;1.92;;;22.50;60.80;;;;;;5047842;28;20033;-59
2021/09/19 18:26:32;;;;;;;1.73;1.63;;;22.40;60.80;;;;;;5028916;28;20069;-61
2021/09/19 18:28:58;;;;;;;2.00;1.88;;;22.50;60.90;;;;;;5034190;28;20064;-59
2021/09/19 18:31:24;;;;;;;2.08;1.70;;;22.40;60.80;;;;;;5048363;28;20048;-61
2021/09/19 18:33:50;;;;;;;1.70;1.60;;;22.40;60.80;;;;;;5053439;28;20050;-60
2021/09/19 18:36:16;;;;;;;2.08;1.88;;;22.50;60.90;;;;;;5038311;28;20499;-58
2021/09/19 18:38:41;;;;;;;1.73;1.63;;;22.40;60.90;;;;;;5046773;28;20345;-61
2021/09/19 18:41:07;;;;;;;2.22;1.60;;;22.40;61.00;;;;;;5057318;28;20037;-61
2021/09/19 18:43:34;;;;;;;1.63;1.52;;;22.40;61.00;;;;;;5043531;28;20374;-58
2021/09/19 18:46:01;;;;;;;1.65;1.55;;;22.40;61.00;;;;;;5041983;28;20041;-59
2021/09/19 18:48:27;;;;;;;1.80;1.70;;;22.40;61.10;;;;;;5049783;28;20116;-58
2021/09/19 18:50:52;;;;;;;1.60;1.50;;;22.40;61.70;;;;;;5049306;28;20041;-61
2021/09/19 18:53:19;;;;;;;2.15;1.73;;;22.40;61.10;;;;;;5059781;28;20044;-57
2021/09/19 18:55:45;;;;;;;1.80;1.70;;;22.40;61.10;;;;;;5052929;28;20036;-58
2021/09/19 18:58:11;;;;;;;1.70;1.60;;;22.40;61.10;;;;;;5054403;28;20033;-58
2021/09/19 19:00:37;;;;;;;1.95;1.85;;;22.40;61.10;;;;;;5049989;28;20076;-63
2021/09/19 19:03:03;;;;;;;1.98;1.80;;;22.40;61.20;;;;;;5057820;28;20045;-62
2021/09/19 19:05:29;;;;;;;2.15;1.95;;;22.40;61.10;;;;;;5061277;28;20035;-62
2021/09/19 19:07:55;;;;;;;1.90;1.77;;;22.40;61.20;;;;;;5041734;28;20044;-59
2021/09/19 19:10:21;;;;;;;1.95;1.85;;;22.40;61.10;;;;;;5061500;28;20045;-61
2021/09/19 19:12:46;;;;;;;2.15;1.92;;;22.40;61.20;;;;;;5054521;28;20045;-63
2021/09/19 19:15:12;;;;;;;1.90;1.80;;;22.40;61.20;;;;;;5055260;28;20045;-64
2021/09/19 19:17:38;;;;;;;1.90;1.80;;;22.40;61.20;;;;;;5040505;28;20037;-61
2021/09/19 19:20:05;;;;;;;1.70;1.60;;;22.40;61.20;;;;;;5037181;28;20037;-61
2021/09/19 19:22:31;;;;;;;1.98;1.88;;;22.40;61.80;;;;;;5039333;28;20491;-61
2021/09/19 19:24:59;;;;;;;2.25;1.67;;;22.40;61.20;;;;;;5037178;28;20033;-63
2021/09/19 19:27:24;;;;;;;1.75;1.65;;;22.40;61.20;;;;;;5034621;28;20800;-61
2021/09/19 19:29:50;;;;;;;2.45;1.92;;;22.40;61.20;;;;;;5031429;28;20056;-62
2021/09/19 19:32:17;;;;;;;2.00;1.80;;;22.40;61.30;;;;;;5024348;28;20052;-63
2021/09/19 19:34:43;;;;;;;1.90;1.80;;;22.40;61.30;;;;;;5029201;28;20116;-63
2021/09/19 19:37:10;;;;;;;2.00;1.90;;;22.30;61.20;;;;;;5028610;28;20188;-64
2021/09/19 19:39:36;;;;;;;2.08;1.63;;;22.30;61.20;;;;;;5032429;28;20030;-59
2021/09/19 19:42:02;;;;;;;1.70;1.60;;;22.30;61.20;;;;;;5025757;28;20068;-60
2021/09/19 19:44:36;;;;;;;1.92;1.73;;;22.40;61.20;;;;;;5032702;28;20044;-59
2021/09/19 19:47:01;;;;;;;1.70;1.60;;;22.40;61.30;;;;;;5020902;28;20048;-59
2021/09/19 19:49:27;;;;;;;2.08;1.83;;;22.30;61.20;;;;;;5030732;28;20045;-61
2021/09/19 19:51:53;;;;;;;2.00;1.90;;;22.30;61.20;;;;;;5032952;28;20038;-61
2021/09/19 19:54:19;;;;;;;1.70;1.60;;;22.30;61.20;;;;;;5035452;28;20619;-57
2021/09/19 19:56:45;;;;;;;1.98;1.73;;;22.30;61.30;;;;;;5036378;28;20049;-62
2021/09/19 19:59:10;;;;;;;2.08;1.58;;;22.30;61.20;;;;;;5036456;28;20052;-59
2021/09/19 20:01:36;;;;;;;2.03;1.83;;;22.30;61.20;;;;;;5032185;28;20034;-58
2021/09/19 20:04:02;;;;;;;1.83;1.73;;;22.30;61.20;;;;;;5036496;28;20029;-59
2021/09/19 20:06:27;;;;;;;1.83;1.73;;;22.30;61.20;;;;;;5034457;28;20030;-59
2021/09/19 20:08:54;;;;;;;1.92;1.83;;;22.30;61.20;;;;;;5042558;28;20133;-59
2021/09/19 20:11:21;;;;;;;2.33;1.90;;;22.30;61.20;;;;;;5032730;28;20049;-58
2021/09/19 20:13:47;;;;;;;1.90;1.73;;;22.30;61.10;;;;;;5038734;28;20152;-55
2021/09/19 20:16:13;;;;;;;1.88;1.70;;;22.30;61.00;;;;;;5036040;28;20065;-56
2021/09/19 20:18:38;;;;;;;2.00;1.90;;;22.30;61.00;;;;;;5050447;28;20606;-57
2021/09/19 20:21:04;;;;;;;2.20;2.10;;;22.30;61.00;;;;;;5029957;28;20123;-54
2021/09/19 20:23:30;;;;;;;1.90;1.80;;;22.30;61.00;;;;;;5051863;28;20384;-60
2021/09/19 20:25:55;;;;;;;1.80;1.70;;;22.30;61.00;;;;;;5050467;28;20538;-57
2021/09/19 20:28:21;;;;;;;1.80;1.70;;;22.30;61.00;;;;;;5030254;28;20051;-58
2021/09/19 20:30:47;;;;;;;2.20;2.00;;;22.30;61.00;;;;;;5031228;28;20426;-58
2021/09/19 20:33:13;;;;;;;1.90;1.80;;;22.20;61.00;;;;;;5050828;28;20049;-58
2021/09/19 20:35:40;;;;;;;2.25;2.05;;;22.20;61.00;;;;;;5049005;28;20045;-57
2021/09/19 20:38:05;;;;;;;2.03;1.92;;;22.20;61.00;;;;;;5048619;28;20040;-57
2021/09/19 20:40:31;;;;;;;1.83;1.73;;;22.20;61.00;;;;;;5049447;28;20455;-58
2021/09/19 20:42:57;;;;;;;2.08;1.80;;;22.20;61.00;;;;;;5049587;28;20451;-53
2021/09/19 20:45:24;;;;;;;1.70;1.60;;;22.20;61.70;;;;;;5049732;28;20116;-55
2021/09/19 20:47:49;;;;;;;1.80;1.70;;;22.20;61.00;;;;;;5050894;28;20558;-62
2021/09/19 20:50:16;;;;;;;1.70;1.60;;;22.20;61.00;;;;;;5034164;28;20039;-56
2021/09/19 20:52:42;;;;;;;2.00;1.80;;;22.20;61.00;;;;;;5049626;28;20041;-56
2021/09/19 20:55:09;;;;;;;1.95;1.83;;;22.10;61.00;;;;;;5051954;28;20034;-57
2021/09/19 20:57:34;;;;;;;1.80;1.70;;;22.10;61.00;;;;;;5048176;28;20079;-56
2021/09/19 21:00:02;;;;;;;1.88;1.70;;;22.20;61.00;;;;;;5051552;28;20060;-58
2021/09/19 21:02:28;;;;;;;2.08;1.88;;;22.10;60.90;;;;;;5034485;28;20051;-58
2021/09/19 21:04:53;;;;;;;1.88;1.77;;;22.10;61.60;;;;;;5048056;28;20041;-58
2021/09/19 21:07:19;;;;;;;1.70;1.60;;;22.10;61.60;;;;;;5034609;28;20037;-58
2021/09/19 21:09:45;;;;;;;2.00;1.90;;;22.10;61.00;;;;;;5052606;28;20440;-57
2021/09/19 21:12:10;;;;;;;2.05;1.70;;;22.10;61.00;;;;;;5048362;28;20041;-58
2021/09/19 21:14:36;;;;;;;1.80;1.70;;;22.10;61.00;;;;;;5047640;28;20100;-56
2021/09/19 21:17:02;;;;;;;1.85;1.70;;;22.10;61.10;;;;;;5050134;28;20053;-57
2021/09/19 21:19:28;;;;;;;2.35;1.90;;;22.10;61.10;;;;;;5050962;28;20032;-55
2021/09/19 21:21:53;;;;;;;1.88;1.58;;;22.10;61.10;;;;;;5048684;28;20511;-54
2021/09/19 21:24:20;;;;;;;1.95;1.70;;;22.10;61.10;;;;;;5050109;28;20048;-56
2021/09/19 21:26:46;;;;;;;1.88;1.77;;;22.10;61.10;;;;;;5030665;28;20116;-59
2021/09/19 21:29:13;;;;;;;1.73;1.63;;;22.10;61.10;;;;;;5049611;28;20041;-56
2021/09/19 21:31:40;;;;;;;1.67;1.55;;;22.10;61.10;;;;;;5049010;28;20044;-57